createdAt,value
2019-04-04T21:58:24.044Z,96.26
2019-04-04T22:00:51.551Z,96.19
2019-04-04T22:03:19.213Z,95.96
2019-04-04T22:05:46.848Z,95.55
2019-04-04T22:08:14.443Z,95.36
2019-04-04T22:10:43.873Z,94.81
2019-04-04T22:13:11.382Z,94.63
2019-04-04T22:15:39.672Z,94.60
2019-04-04T22:18:07.335Z,94.45
2019-04-04T22:20:34.820Z,94.30
2019-04-04T22:23:02.945Z,94.12
2019-04-04T22:25:30.661Z,94.26
2019-04-04T22:27:58.126Z,94.42
2019-04-04T22:30:26.472Z,93.99
2019-04-04T22:32:53.971Z,94.00
2019-04-04T22:35:21.605Z,93.90
2019-04-04T22:37:49.085Z,93.84
2019-04-04T22:40:16.485Z,93.57
2019-04-04T22:42:43.988Z,93.52
2019-04-04T22:45:12.357Z,93.52
2019-04-04T22:47:41.330Z,93.38
2019-04-04T22:50:09.221Z,93.46
2019-04-04T22:52:36.732Z,93.67
2019-04-04T22:55:04.363Z,93.75
2019-04-04T22:57:32.866Z,93.77
2019-04-04T23:00:00.472Z,94.14
2019-04-04T23:02:28.677Z,94.27
2019-04-04T23:04:56.290Z,94.52
2019-04-04T23:07:23.863Z,94.56
2019-04-04T23:09:51.528Z,94.63
2019-04-04T23:12:19.117Z,94.81
2019-04-04T23:14:48.363Z,94.73
2019-04-04T23:17:16.423Z,94.82
2019-04-04T23:19:43.893Z,94.96
2019-04-04T23:22:11.284Z,95.18
2019-04-04T23:24:38.728Z,95.52
2019-04-04T23:27:06.123Z,95.59
2019-04-04T23:29:33.556Z,95.31
2019-04-04T23:32:00.983Z,95.09
2019-04-04T23:34:28.455Z,94.85
2019-04-04T23:36:55.903Z,94.89
2019-04-04T23:39:23.372Z,94.77
2019-04-04T23:41:50.822Z,94.94
2019-04-04T23:44:18.312Z,95.14
2019-04-04T23:46:45.713Z,95.14
2019-04-04T23:49:13.153Z,95.33
2019-04-04T23:51:40.528Z,95.21
2019-04-04T23:54:07.958Z,95.25
2019-04-04T23:56:35.389Z,95.24
2019-04-04T23:59:02.862Z,95.42
